Time;durP1;ratioP1;P1;durP2;ratioP2;P2;SDS_P1;SDS_P2;PMS_P1;PMS_P2;Temp;Humidity;BMP_temperature;BMP_pressure;BME280_temperature;BME280_humidity;BME280_pressure;Samples;Min_cycle;Max_cycle;Signal;HPM_P1;HPM_P2
2023/02/09 00:01:55;;;;;;;0.10;0.10;;;-0.60;99.90;;;;;;5022837;28;20830;-81
2023/02/09 00:04:21;;;;;;;0.10;0.10;;;-0.60;99.90;;;;;;5025396;28;20560;-81
2023/02/09 00:06:48;;;;;;;0.10;0.10;;;-0.60;99.90;;;;;;5024244;28;21254;-81
2023/02/09 00:09:14;;;;;;;0.10;0.10;;;-0.60;99.90;;;;;;5023757;28;20175;-81
2023/02/09 00:14:23;;;;;;;0.10;0.10;;;-0.70;99.90;;;;;;5025768;28;20263;-81
2023/02/09 00:16:50;;;;;;;0.10;0.10;;;-0.70;99.90;;;;;;5023634;28;20277;-81
2023/02/09 00:19:16;;;;;;;10.27;9.43;;;-0.70;99.90;;;;;;5026000;28;20210;-81
2023/02/09 00:21:42;;;;;;;0.00;0.00;;;-0.80;99.90;;;;;;5019591;28;20215;-81
2023/02/09 00:24:11;;;;;;;0.10;0.10;;;-0.90;99.90;;;;;;5025534;28;20671;-81
2023/02/09 00:26:37;;;;;;;0.10;0.10;;;-0.90;99.90;;;;;;5024780;28;20179;-80
2023/02/09 00:29:03;;;;;;;0.10;0.10;;;-0.90;99.90;;;;;;5024407;28;20174;-81
2023/02/09 00:31:29;;;;;;;0.10;0.10;;;-0.90;99.90;;;;;;5022094;28;20206;-82
2023/02/09 00:33:54;;;;;;;0.10;0.10;;;-0.90;99.90;;;;;;5025187;28;20210;-82
2023/02/09 00:36:20;;;;;;;0.10;0.10;;;-0.90;99.90;;;;;;5023785;28;20190;-81
2023/02/09 00:38:46;;;;;;;0.10;0.10;;;-0.90;99.90;;;;;;5025718;28;20240;-81
2023/02/09 00:41:12;;;;;;;0.10;0.10;;;-0.90;99.90;;;;;;5023423;28;20744;-80
2023/02/09 00:43:39;;;;;;;0.10;0.10;;;-1.00;99.90;;;;;;5024317;28;20214;-81
2023/02/09 00:46:05;;;;;;;0.10;0.10;;;-0.90;99.90;;;;;;5022281;28;20271;-81
2023/02/09 00:48:30;;;;;;;0.10;0.10;;;-0.90;99.90;;;;;;5027363;28;20190;-81
2023/02/09 00:50:57;;;;;;;0.10;0.10;;;-0.90;99.90;;;;;;5027575;28;20619;-81
2023/02/09 00:53:23;;;;;;;0.10;0.10;;;-0.90;99.90;;;;;;5029139;28;20265;-80
2023/02/09 00:55:50;;;;;;;0.10;0.10;;;-0.90;99.90;;;;;;5027320;28;20298;-81
2023/02/09 00:58:16;;;;;;;0.10;0.10;;;-0.90;99.90;;;;;;5027801;28;20200;-81
2023/02/09 01:00:42;;;;;;;0.10;0.10;;;-0.90;99.90;;;;;;5026119;28;20206;-81
2023/02/09 01:03:08;;;;;;;0.10;0.10;;;-0.90;99.90;;;;;;5024482;28;20233;-81
2023/02/09 01:05:38;;;;;;;0.10;0.10;;;-0.90;99.90;;;;;;5028518;28;20205;-82
2023/02/09 01:08:04;;;;;;;0.10;0.10;;;-0.90;99.90;;;;;;5043959;28;20667;-81
2023/02/09 01:10:30;;;;;;;0.10;0.10;;;-0.80;99.90;;;;;;5029258;28;20187;-80
2023/02/09 01:12:55;;;;;;;0.10;0.10;;;-1.00;99.90;;;;;;5027736;28;20640;-81
2023/02/09 01:15:21;;;;;;;0.10;0.10;;;-1.00;99.90;;;;;;5028294;28;20286;-81
2023/02/09 01:17:46;;;;;;;0.10;0.10;;;-1.00;99.90;;;;;;5027583;28;20632;-81
2023/02/09 01:20:12;;;;;;;0.10;0.10;;;-1.20;99.90;;;;;;5028527;28;20290;-81
2023/02/09 01:22:39;;;;;;;0.10;0.10;;;-1.20;99.90;;;;;;5025944;28;20296;-79
2023/02/09 01:25:05;;;;;;;0.10;0.10;;;-1.20;99.90;;;;;;5027681;28;20189;-81
2023/02/09 01:27:31;;;;;;;0.10;0.10;;;-1.30;99.90;;;;;;5026576;28;20192;-82
2023/02/09 01:29:57;;;;;;;0.10;0.10;;;-1.30;99.90;;;;;;5022558;28;20248;-80
2023/02/09 01:32:22;;;;;;;0.10;0.10;;;-1.30;99.90;;;;;;5026716;28;20246;-81
2023/02/09 01:34:52;;;;;;;0.10;0.10;;;-1.40;99.90;;;;;;5026885;28;20182;-80
2023/02/09 01:37:18;;;;;;;0.10;0.10;;;-1.30;99.90;;;;;;5027493;28;20183;-79
2023/02/09 01:39:44;;;;;;;0.00;0.00;;;-1.30;99.90;;;;;;5026308;28;20188;-77
2023/02/09 01:42:18;;;;;;;0.10;0.10;;;-1.40;99.90;;;;;;5027207;28;20202;-78
2023/02/09 01:44:44;;;;;;;0.10;0.10;;;-1.50;99.90;;;;;;5026715;28;21075;-78
2023/02/09 01:47:18;;;;;;;0.10;0.10;;;-1.40;99.90;;;;;;5025925;28;20195;-79
2023/02/09 01:49:46;;;;;;;0.10;0.10;;;-1.40;99.90;;;;;;5018969;28;20229;-78
2023/02/09 01:52:17;;;;;;;0.10;0.10;;;-1.40;99.90;;;;;;5026082;28;20204;-79
2023/02/09 01:55:01;;;;;;;0.10;0.10;;;-1.50;99.90;;;;;;5024067;28;20179;-79
2023/02/09 01:57:33;;;;;;;0.10;0.10;;;-1.50;99.90;;;;;;5027011;28;20199;-77
2023/02/09 02:00:09;;;;;;;0.10;0.10;;;-1.50;99.90;;;;;;5025919;28;20194;-78
2023/02/09 02:02:36;;;;;;;0.10;0.10;;;-1.50;99.90;;;;;;5023546;28;20698;-77
2023/02/09 02:05:03;;;;;;;0.10;0.10;;;-1.50;99.90;;;;;;5027690;28;20178;-78
2023/02/09 02:07:39;;;;;;;0.10;0.10;;;-1.50;99.90;;;;;;5023180;28;20185;-81
2023/02/09 02:10:05;;;;;;;0.10;0.10;;;-1.60;99.90;;;;;;5027598;28;20177;-81
2023/02/09 02:12:32;;;;;;;0.10;0.10;;;-1.60;99.90;;;;;;5027147;28;20225;-81
2023/02/09 02:14:57;;;;;;;0.10;0.10;;;-1.60;99.90;;;;;;5026895;28;20275;-81
2023/02/09 02:17:35;;;;;;;0.10;0.10;;;-1.50;99.90;;;;;;5027317;28;20258;-81
2023/02/09 02:20:30;;;;;;;0.10;0.10;;;-1.50;99.90;;;;;;5027864;28;20174;-80
2023/02/09 02:23:26;;;;;;;0.10;0.10;;;-1.40;99.90;;;;;;5026037;28;20209;-81
2023/02/09 02:26:07;;;;;;;0.10;0.10;;;-1.60;99.90;;;;;;5027836;28;20182;-82
2023/02/09 02:28:58;;;;;;;0.07;0.07;;;-1.60;99.90;;;;;;5026033;28;20706;-82
2023/02/09 02:31:42;;;;;;;0.10;0.10;;;-1.70;99.90;;;;;;5027809;28;20198;-81
2023/02/09 02:34:39;;;;;;;0.10;0.10;;;-1.70;99.90;;;;;;5026225;28;20249;-80
2023/02/09 02:37:17;;;;;;;0.10;0.10;;;-1.80;99.90;;;;;;5026950;28;20188;-81
2023/02/09 02:40:10;;;;;;;0.10;0.10;;;-1.70;99.90;;;;;;5025895;28;20186;-81
2023/02/09 02:42:53;;;;;;;0.10;0.10;;;-1.80;99.90;;;;;;5025966;28;20211;-80
2023/02/09 02:45:43;;;;;;;0.10;0.10;;;-1.80;99.90;;;;;;5025662;28;20203;-81
2023/02/09 02:48:08;;;;;;;0.10;0.10;;;-1.80;99.90;;;;;;5042550;28;20198;-80
2023/02/09 02:50:38;;;;;;;0.10;0.10;;;-1.80;99.90;;;;;;5025948;28;21098;-80
2023/02/09 02:53:07;;;;;;;0.10;0.10;;;-1.90;99.90;;;;;;5025806;28;20180;-81
2023/02/09 02:55:35;;;;;;;0.10;0.10;;;-1.90;99.90;;;;;;5024503;28;20240;-80
2023/02/09 02:58:07;;;;;;;0.10;0.10;;;-1.80;99.90;;;;;;5023280;28;20185;-80
2023/02/09 03:00:45;;;;;;;0.10;0.10;;;-1.90;99.90;;;;;;5025759;28;20206;-80
2023/02/09 03:03:20;;;;;;;0.10;0.10;;;-1.80;99.90;;;;;;5025283;28;20198;-81
2023/02/09 03:05:46;;;;;;;0.10;0.10;;;-1.80;99.90;;;;;;5027378;28;20175;-81
2023/02/09 03:08:12;;;;;;;0.00;0.00;;;-1.70;99.90;;;;;;5026249;28;20185;-81
2023/02/09 03:10:39;;;;;;;0.10;0.10;;;-1.80;99.90;;;;;;5025651;28;20580;-81
2023/02/09 03:13:36;;;;;;;0.10;0.10;;;-1.80;99.90;;;;;;5024729;28;20799;-81
2023/02/09 03:16:07;;;;;;;0.10;0.10;;;-1.70;99.90;;;;;;5026456;28;20179;-81
2023/02/09 03:19:04;;;;;;;0.10;0.10;;;-1.80;99.90;;;;;;5024596;28;20188;-82
2023/02/09 03:21:55;;;;;;;0.10;0.10;;;-1.70;99.90;;;;;;5024721;28;20210;-81
2023/02/09 03:24:54;;;;;;;0.10;0.10;;;-1.80;99.90;;;;;;5026269;28;20202;-80
2023/02/09 03:27:43;;;;;;;0.10;0.10;;;-1.90;99.90;;;;;;5022676;28;20182;-81
2023/02/09 03:30:12;;;;;;;0.10;0.10;;;-1.90;99.90;;;;;;5025521;28;20186;-82
2023/02/09 03:32:43;;;;;;;0.10;0.10;;;-1.90;99.90;;;;;;5025746;28;20210;-81
2023/02/09 03:35:12;;;;;;;0.10;0.10;;;-2.00;99.90;;;;;;5026701;28;20460;-81
2023/02/09 03:37:38;;;;;;;0.00;0.00;;;-2.00;99.90;;;;;;5024808;28;20187;-81
2023/02/09 03:40:04;;;;;;;0.10;0.10;;;-2.10;99.90;;;;;;5024991;28;20681;-81
2023/02/09 03:42:29;;;;;;;0.10;0.10;;;-2.10;99.90;;;;;;5024968;28;20245;-81
2023/02/09 03:44:55;;;;;;;0.10;0.10;;;-2.10;99.90;;;;;;5022230;28;20528;-81
2023/02/09 03:47:20;;;;;;;0.10;0.10;;;-2.20;99.90;;;;;;5024852;28;21027;-81
2023/02/09 03:49:46;;;;;;;0.10;0.10;;;-2.20;99.90;;;;;;5021929;28;20277;-81
2023/02/09 03:52:13;;;;;;;0.10;0.10;;;-2.20;99.90;;;;;;5026046;28;20198;-81
2023/02/09 03:54:39;;;;;;;0.10;0.10;;;-2.20;99.90;;;;;;5025741;28;20233;-80
2023/02/09 03:57:06;;;;;;;0.10;0.10;;;-2.20;99.90;;;;;;5023841;28;20179;-81
2023/02/09 03:59:34;;;;;;;0.10;0.10;;;-2.20;99.90;;;;;;5024949;28;20240;-80
2023/02/09 04:02:00;;;;;;;0.10;0.10;;;-2.20;99.90;;;;;;5024175;28;20295;-81
2023/02/09 04:04:26;;;;;;;0.10;0.10;;;-2.20;99.90;;;;;;5023397;28;20201;-81
2023/02/09 04:06:52;;;;;;;0.10;0.10;;;-2.20;99.90;;;;;;5023367;28;20183;-80
2023/02/09 04:09:18;;;;;;;0.10;0.10;;;-2.30;99.90;;;;;;5024876;28;20205;-80
2023/02/09 04:11:43;;;;;;;0.10;0.10;;;-2.30;99.90;;;;;;5023762;28;20202;-81
2023/02/09 04:14:09;;;;;;;0.10;0.10;;;-2.40;99.90;;;;;;5025484;28;20186;-81
2023/02/09 04:16:36;;;;;;;0.10;0.10;;;-2.40;99.90;;;;;;5019501;28;20198;-81
2023/02/09 04:19:02;;;;;;;0.10;0.10;;;-2.40;99.90;;;;;;5023897;28;20191;-80
2023/02/09 04:21:28;;;;;;;0.10;0.10;;;-2.40;99.90;;;;;;5022898;28;20211;-82
2023/02/09 04:23:53;;;;;;;0.10;0.10;;;-2.30;99.90;;;;;;5023020;28;20225;-81
2023/02/09 04:26:19;;;;;;;0.10;0.10;;;-2.30;99.90;;;;;;5023761;28;20686;-81
2023/02/09 04:28:44;;;;;;;0.10;0.10;;;-2.30;99.90;;;;;;5024860;28;20180;-81
2023/02/09 04:31:10;;;;;;;0.10;0.10;;;-2.30;99.90;;;;;;5023879;28;20209;-81
2023/02/09 04:33:36;;;;;;;0.10;0.10;;;-2.40;99.90;;;;;;5024784;28;20269;-81
2023/02/09 04:36:03;;;;;;;0.10;0.10;;;-2.40;99.90;;;;;;5021719;28;20186;-80
2023/02/09 04:38:28;;;;;;;0.10;0.10;;;-2.40;99.90;;;;;;5023416;28;20664;-80
2023/02/09 04:40:55;;;;;;;0.10;0.10;;;-2.40;99.90;;;;;;5024282;28;20215;-81
2023/02/09 04:43:21;;;;;;;0.10;0.10;;;-2.50;99.90;;;;;;5023961;28;20206;-81
2023/02/09 04:45:46;;;;;;;0.00;0.00;;;-2.50;99.90;;;;;;5025268;28;20702;-81
2023/02/09 04:48:14;;;;;;;0.10;0.10;;;-2.50;99.90;;;;;;5021596;28;20211;-81
2023/02/09 04:50:41;;;;;;;0.10;0.10;;;-2.50;99.90;;;;;;5024376;28;20542;-81
2023/02/09 04:53:07;;;;;;;0.10;0.10;;;-2.50;99.90;;;;;;5024506;28;20186;-82
2023/02/09 04:55:35;;;;;;;0.10;0.10;;;-2.50;99.90;;;;;;5022434;28;20765;-81
2023/02/09 05:00:44;;;;;;;0.10;0.10;;;-2.50;99.90;;;;;;5024908;28;20259;-82
2023/02/09 05:03:10;;;;;;;0.10;0.10;;;-2.50;99.90;;;;;;5020516;28;20211;-81
2023/02/09 05:05:39;;;;;;;0.10;0.10;;;-2.50;99.90;;;;;;5024833;28;20187;-81
2023/02/09 05:08:04;;;;;;;0.10;0.10;;;-2.40;99.90;;;;;;5023851;28;20225;-81
2023/02/09 05:10:30;;;;;;;0.10;0.10;;;-2.40;99.90;;;;;;5025341;28;20190;-81
2023/02/09 05:12:55;;;;;;;0.10;0.10;;;-2.40;99.90;;;;;;5023430;28;20236;-82
2023/02/09 05:15:21;;;;;;;0.10;0.10;;;-2.30;99.90;;;;;;5020405;28;20229;-80
2023/02/09 05:17:46;;;;;;;0.10;0.10;;;-2.40;99.90;;;;;;5024768;28;20612;-80
2023/02/09 05:20:12;;;;;;;0.10;0.10;;;-2.50;99.90;;;;;;5024195;28;20590;-81
2023/02/09 05:22:37;;;;;;;0.13;0.13;;;-2.50;99.90;;;;;;5025431;28;20742;-81
2023/02/09 05:25:03;;;;;;;0.10;0.10;;;-2.50;99.90;;;;;;5023383;28;20563;-81
2023/02/09 05:27:29;;;;;;;0.10;0.10;;;-2.60;99.90;;;;;;5023349;28;20270;-80
2023/02/09 05:29:54;;;;;;;0.10;0.10;;;-2.60;99.90;;;;;;5023679;28;20207;-81
2023/02/09 05:32:20;;;;;;;0.10;0.10;;;-2.60;99.90;;;;;;5021368;28;20191;-80
2023/02/09 05:34:45;;;;;;;0.10;0.10;;;-2.70;99.90;;;;;;5025580;28;20281;-81
2023/02/09 05:37:11;;;;;;;0.10;0.10;;;-2.70;99.90;;;;;;5027098;28;20189;-81
2023/02/09 05:39:36;;;;;;;0.10;0.10;;;-2.80;99.90;;;;;;5026109;28;20178;-81
2023/02/09 05:42:14;;;;;;;0.10;0.10;;;-2.80;99.90;;;;;;5027063;28;20237;-81
2023/02/09 05:44:49;;;;;;;0.10;0.10;;;-2.80;99.90;;;;;;5026513;28;20208;-81
2023/02/09 05:47:17;;;;;;;0.10;0.10;;;-2.80;99.90;;;;;;5026117;28;20229;-81
2023/02/09 05:49:43;;;;;;;0.10;0.10;;;-2.70;99.90;;;;;;5027296;28;20274;-81
2023/02/09 05:52:10;;;;;;;0.10;0.10;;;-2.60;99.90;;;;;;5027349;28;20202;-81
2023/02/09 05:54:35;;;;;;;0.10;0.10;;;-2.60;99.90;;;;;;5027411;28;20179;-82
2023/02/09 05:57:02;;;;;;;0.10;0.10;;;-2.50;99.90;;;;;;5025936;28;20536;-81
2023/02/09 05:59:28;;;;;;;0.10;0.10;;;-2.50;99.90;;;;;;5027006;28;20188;-81
2023/02/09 06:01:53;;;;;;;0.10;0.10;;;-2.50;99.90;;;;;;5024989;28;20206;-81
2023/02/09 06:04:19;;;;;;;0.10;0.10;;;-2.60;99.90;;;;;;5027386;28;20206;-80
2023/02/09 06:06:45;;;;;;;0.10;0.10;;;-2.60;99.90;;;;;;5027786;28;20182;-80
2023/02/09 06:09:11;;;;;;;0.10;0.10;;;-2.70;99.90;;;;;;5027016;28;20278;-82
2023/02/09 06:11:36;;;;;;;0.10;0.10;;;-2.70;99.90;;;;;;5027567;28;20260;-81
2023/02/09 06:14:02;;;;;;;0.10;0.10;;;-2.90;99.90;;;;;;5024727;28;20213;-81
2023/02/09 06:16:28;;;;;;;0.10;0.10;;;-3.00;99.90;;;;;;5026158;28;20187;-81
2023/02/09 06:18:53;;;;;;;0.10;0.10;;;-3.00;99.90;;;;;;5026308;28;20185;-77
2023/02/09 06:21:19;;;;;;;0.10;0.10;;;-3.10;99.90;;;;;;5022811;28;20210;-77
2023/02/09 06:23:45;;;;;;;0.10;0.10;;;-3.00;99.90;;;;;;5027053;28;20216;-78
2023/02/09 06:26:13;;;;;;;0.10;0.10;;;-3.10;99.90;;;;;;5025324;28;20570;-77
2023/02/09 06:28:39;;;;;;;0.00;0.00;;;-3.00;99.90;;;;;;5027090;28;20709;-78
2023/02/09 06:31:05;;;;;;;0.10;0.10;;;-2.90;99.90;;;;;;5026972;28;20202;-79
2023/02/09 06:33:32;;;;;;;0.10;0.10;;;-2.80;99.90;;;;;;5027733;28;20191;-79
2023/02/09 06:35:57;;;;;;;0.10;0.10;;;-2.80;99.90;;;;;;5025524;28;20605;-77
2023/02/09 06:38:23;;;;;;;0.10;0.10;;;-2.70;99.90;;;;;;5025108;28;20186;-77
2023/02/09 06:40:49;;;;;;;0.10;0.10;;;-2.80;99.90;;;;;;5026391;28;20746;-79
2023/02/09 06:43:15;;;;;;;0.10;0.10;;;-2.80;99.90;;;;;;5024520;28;20643;-79
2023/02/09 06:45:41;;;;;;;0.10;0.10;;;-2.80;99.90;;;;;;5025353;28;20225;-78
2023/02/09 06:48:07;;;;;;;0.10;0.10;;;-2.80;99.90;;;;;;5024238;28;20210;-78
2023/02/09 06:50:36;;;;;;;0.10;0.10;;;-2.90;99.90;;;;;;5026977;28;20264;-77
2023/02/09 06:53:02;;;;;;;0.10;0.10;;;-2.90;99.90;;;;;;5021749;28;20202;-78
2023/02/09 06:55:28;;;;;;;0.10;0.10;;;-2.90;99.90;;;;;;5026075;28;20210;-80
2023/02/09 06:57:54;;;;;;;0.10;0.10;;;-2.80;99.90;;;;;;5022836;28;20254;-78
2023/02/09 07:00:21;;;;;;;0.10;0.10;;;-2.70;99.90;;;;;;5024628;28;20291;-78
2023/02/09 07:02:47;;;;;;;0.10;0.10;;;-2.70;99.90;;;;;;5025092;28;20680;-78
2023/02/09 07:05:14;;;;;;;0.10;0.10;;;-2.60;99.90;;;;;;5024009;28;20194;-78
2023/02/09 07:07:40;;;;;;;0.10;0.10;;;-2.60;99.90;;;;;;5026151;28;20180;-79
2023/02/09 07:10:06;;;;;;;0.10;0.10;;;-2.50;99.90;;;;;;5024875;28;20222;-78
2023/02/09 07:12:32;;;;;;;0.10;0.10;;;-2.50;99.90;;;;;;5024329;28;20199;-78
2023/02/09 07:14:59;;;;;;;0.10;0.10;;;-2.50;99.90;;;;;;5025683;28;20175;-79
2023/02/09 07:17:27;;;;;;;0.10;0.10;;;-2.60;99.90;;;;;;5024030;28;20174;-78
2023/02/09 07:19:53;;;;;;;0.10;0.10;;;-2.70;99.90;;;;;;5026133;28;20633;-77
2023/02/09 07:22:18;;;;;;;0.10;0.10;;;-2.70;99.90;;;;;;5023801;28;20199;-78
2023/02/09 07:24:44;;;;;;;0.10;0.10;;;-2.60;99.90;;;;;;5022028;28;20200;-79
2023/02/09 07:27:09;;;;;;;0.10;0.10;;;-2.60;99.90;;;;;;5024003;28;20608;-78
2023/02/09 07:29:35;;;;;;;0.10;0.10;;;-2.70;99.90;;;;;;5020733;28;20191;-79
2023/02/09 07:32:00;;;;;;;0.10;0.10;;;-2.70;99.90;;;;;;5025643;28;20281;-79
2023/02/09 07:34:26;;;;;;;0.10;0.10;;;-2.70;99.90;;;;;;5024987;28;20187;-79
2023/02/09 07:36:51;;;;;;;0.10;0.10;;;-2.60;99.90;;;;;;5024374;28;20595;-78
2023/02/09 07:39:17;;;;;;;0.10;0.10;;;-2.60;99.90;;;;;;5023534;28;20183;-80
2023/02/09 07:41:42;;;;;;;0.10;0.10;;;-2.50;99.90;;;;;;5025741;28;20687;-78
2023/02/09 07:44:09;;;;;;;0.10;0.10;;;-2.40;99.90;;;;;;5024250;28;20202;-79
2023/02/09 07:46:35;;;;;;;0.10;0.10;;;-2.30;99.90;;;;;;5025190;28;20685;-79
2023/02/09 07:49:00;;;;;;;0.10;0.10;;;-2.30;99.90;;;;;;5023861;28;20722;-78
2023/02/09 07:51:27;;;;;;;0.10;0.10;;;-2.10;99.90;;;;;;5026119;28;20221;-78
2023/02/09 07:53:55;;;;;;;0.10;0.10;;;-1.70;99.90;;;;;;5021918;28;20175;-78
2023/02/09 07:56:22;;;;;;;0.10;0.10;;;-1.50;99.90;;;;;;5024013;28;20184;-78
2023/02/09 07:58:47;;;;;;;0.10;0.10;;;-1.40;99.90;;;;;;5023280;28;20350;-79
2023/02/09 08:01:13;;;;;;;0.10;0.10;;;-1.40;99.90;;;;;;5023576;28;20233;-78
2023/02/09 08:03:43;;;;;;;0.10;0.10;;;-1.30;99.90;;;;;;5024257;28;20636;-78
2023/02/09 08:06:30;;;;;;;0.10;0.10;;;-1.20;99.90;;;;;;5024664;28;20717;-78
2023/02/09 08:08:55;;;;;;;0.10;0.10;;;-1.20;99.90;;;;;;5023454;28;20182;-78
2023/02/09 08:11:32;;;;;;;0.10;0.10;;;-1.10;99.90;;;;;;5024640;28;20301;-81
2023/02/09 08:14:02;;;;;;;0.10;0.10;;;-0.90;99.90;;;;;;5026302;28;20273;-81
2023/02/09 08:16:32;;;;;;;0.10;0.10;;;-0.90;99.90;;;;;;5023836;28;20196;-80
2023/02/09 08:19:07;;;;;;;0.10;0.10;;;-0.70;99.90;;;;;;5021429;28;20652;-81
2023/02/09 08:21:37;;;;;;;0.10;0.10;;;-0.60;99.90;;;;;;5025576;28;20285;-82
2023/02/09 08:24:04;;;;;;;0.10;0.10;;;-0.60;99.90;;;;;;5025467;28;20289;-80
2023/02/09 08:26:30;;;;;;;0.10;0.10;;;-0.50;99.90;;;;;;5024229;28;20214;-82
2023/02/09 08:28:56;;;;;;;0.10;0.10;;;-0.30;99.90;;;;;;5019196;28;20588;-81
2023/02/09 08:31:21;;;;;;;0.07;0.07;;;0.00;99.90;;;;;;5022208;28;20202;-81
2023/02/09 08:33:48;;;;;;;0.00;0.00;;;0.40;99.90;;;;;;5024108;28;20217;-82
2023/02/09 08:36:15;;;;;;;0.10;0.10;;;0.70;99.90;;;;;;5025313;28;20182;-81
2023/02/09 08:38:41;;;;;;;0.00;0.00;;;1.00;99.90;;;;;;5024376;28;20192;-81
2023/02/09 08:41:09;;;;;;;0.03;0.03;;;1.20;99.90;;;;;;5024207;28;20206;-81
2023/02/09 08:43:35;;;;;;;0.10;0.10;;;1.50;99.90;;;;;;5026125;28;20217;-82
2023/02/09 08:46:05;;;;;;;0.00;0.00;;;1.50;99.90;;;;;;5025021;28;20208;-81
2023/02/09 08:48:36;;;;;;;0.10;0.10;;;1.80;99.90;;;;;;5025194;28;20179;-81
2023/02/09 08:51:02;;;;;;;0.10;0.10;;;1.60;99.90;;;;;;5023577;28;20196;-81
2023/02/09 08:53:27;;;;;;;0.10;0.10;;;1.80;99.90;;;;;;5022895;28;20183;-82
2023/02/09 08:55:53;;;;;;;0.10;0.10;;;1.90;99.90;;;;;;5022268;28;20184;-81
2023/02/09 08:58:19;;;;;;;0.10;0.10;;;2.20;99.90;;;;;;5021291;28;20319;-82
2023/02/09 09:00:45;;;;;;;0.10;0.10;;;2.40;99.90;;;;;;5023857;28;20227;-81
2023/02/09 09:03:10;;;;;;;0.10;0.10;;;2.60;99.90;;;;;;5019997;28;20291;-81
2023/02/09 09:05:36;;;;;;;0.00;0.00;;;2.70;99.90;;;;;;5022935;28;20185;-81
2023/02/09 09:08:02;;;;;;;0.10;0.10;;;2.60;99.90;;;;;;5026320;28;20242;-81
2023/02/09 09:10:28;;;;;;;0.10;0.10;;;2.80;99.90;;;;;;5026357;28;20469;-82
2023/02/09 09:12:54;;;;;;;0.10;0.10;;;2.80;99.90;;;;;;5028149;28;20659;-82
2023/02/09 09:15:19;;;;;;;0.10;0.10;;;2.70;99.90;;;;;;5026952;28;20190;-81
2023/02/09 09:17:45;;;;;;;0.03;0.03;;;2.90;99.90;;;;;;5027823;28;20285;-81
2023/02/09 09:20:11;;;;;;;0.10;0.10;;;2.80;99.90;;;;;;5027622;28;20827;-81
2023/02/09 09:22:36;;;;;;;0.07;0.07;;;2.80;99.90;;;;;;5029395;28;20299;-82
2023/02/09 09:25:03;;;;;;;0.00;0.00;;;3.00;99.90;;;;;;5025445;28;20191;-81
2023/02/09 09:27:31;;;;;;;0.00;0.00;;;3.20;99.90;;;;;;5027637;28;20182;-81
2023/02/09 09:29:57;;;;;;;0.00;0.00;;;3.30;99.90;;;;;;5029178;28;20182;-81
2023/02/09 09:32:23;;;;;;;0.10;0.10;;;3.50;99.90;;;;;;5025810;28;20194;-81
2023/02/09 09:34:56;;;;;;;0.10;0.10;;;3.50;99.90;;;;;;5026087;28;20197;-80
2023/02/09 09:37:23;;;;;;;0.10;0.10;;;3.20;99.90;;;;;;5028832;28;20198;-81
2023/02/09 09:39:49;;;;;;;0.10;0.10;;;3.30;99.90;;;;;;5025313;28;20188;-82
2023/02/09 09:42:35;;;;;;;0.10;0.10;;;2.40;99.90;;;;;;5024072;28;20208;-82
2023/02/09 09:45:03;;;;;;;0.00;0.00;;;2.90;99.90;;;;;;5022266;28;20182;-81
2023/02/09 09:47:39;;;;;;;0.10;0.10;;;3.20;99.90;;;;;;5026305;28;20179;-81
2023/02/09 09:50:27;;;;;;;0.63;0.63;;;2.30;99.90;;;;;;5026676;28;20653;-81
2023/02/09 09:53:14;;;;;;;0.00;0.00;;;2.10;99.90;;;;;;5026590;28;20288;-81
2023/02/09 09:55:40;;;;;;;0.10;0.10;;;2.60;99.90;;;;;;5027477;28;20200;-81
2023/02/09 09:58:06;;;;;;;0.10;0.10;;;2.50;99.90;;;;;;5023530;28;20181;-81
2023/02/09 10:00:37;;;;;;;0.17;0.17;;;2.40;99.90;;;;;;5028172;28;20275;-81
2023/02/09 10:03:11;;;;;;;0.10;0.10;;;2.90;99.90;;;;;;5027897;28;20230;-82
2023/02/09 10:05:38;;;;;;;0.10;0.10;;;3.10;99.90;;;;;;5027912;28;20601;-81
2023/02/09 10:08:18;;;;;;;0.10;0.10;;;3.40;99.90;;;;;;5024441;28;20193;-81
2023/02/09 10:11:02;;;;;;;0.00;0.00;;;3.70;99.90;;;;;;5024067;28;20655;-80
2023/02/09 10:13:39;;;;;;;0.10;0.10;;;3.50;99.90;;;;;;5024695;28;20243;-81
2023/02/09 10:16:15;;;;;;;0.10;0.10;;;3.70;99.90;;;;;;5026428;28;20248;-81
2023/02/09 10:18:42;;;;;;;0.10;0.10;;;3.90;99.90;;;;;;5024251;28;20200;-82
2023/02/09 10:21:11;;;;;;;0.10;0.10;;;3.70;99.90;;;;;;5025503;28;20241;-82
2023/02/09 10:23:46;;;;;;;0.10;0.10;;;3.70;99.90;;;;;;5028349;28;20209;-81
2023/02/09 10:26:11;;;;;;;0.10;0.10;;;3.90;99.90;;;;;;5026363;28;20178;-81
2023/02/09 10:28:41;;;;;;;0.10;0.10;;;3.90;99.90;;;;;;5025621;28;20229;-81
2023/02/09 10:31:25;;;;;;;0.00;0.00;;;4.00;99.90;;;;;;5026593;28;20260;-82
2023/02/09 10:34:11;;;;;;;0.10;0.10;;;4.20;99.90;;;;;;5028293;28;20209;-80
2023/02/09 10:37:05;;;;;;;0.10;0.10;;;4.40;99.90;;;;;;5018003;28;20197;-81
2023/02/09 10:39:34;;;;;;;0.00;0.00;;;4.40;99.90;;;;;;5025276;28;20182;-81
2023/02/09 10:42:25;;;;;;;0.00;0.00;;;4.60;99.90;;;;;;5025347;28;20206;-81
2023/02/09 10:44:53;;;;;;;0.10;0.10;;;4.60;99.90;;;;;;5025377;28;20206;-81
2023/02/09 10:47:19;;;;;;;0.10;0.10;;;4.60;99.90;;;;;;5025634;28;20193;-81
2023/02/09 10:49:54;;;;;;;0.10;0.10;;;4.60;99.90;;;;;;5027558;28;20182;-81
2023/02/09 10:52:22;;;;;;;0.00;0.00;;;4.70;99.90;;;;;;5025425;28;20251;-81
2023/02/09 10:54:52;;;;;;;0.07;0.07;;;4.80;99.90;;;;;;5022025;28;20186;-82
2023/02/09 10:57:36;;;;;;;0.10;0.10;;;4.90;99.90;;;;;;5024412;28;20284;-81
2023/02/09 11:00:33;;;;;;;0.10;0.10;;;5.00;99.90;;;;;;5025212;28;20194;-82
2023/02/09 11:03:02;;;;;;;0.10;0.10;;;4.70;99.90;;;;;;5024529;28;21091;-82
2023/02/09 11:05:33;;;;;;;0.10;0.10;;;4.60;99.90;;;;;;5023880;28;20229;-81
2023/02/09 11:08:19;;;;;;;0.10;0.10;;;4.60;99.90;;;;;;5025926;28;20366;-82
2023/02/09 11:10:58;;;;;;;0.10;0.10;;;4.70;99.90;;;;;;5025193;28;20522;-81
2023/02/09 11:13:25;;;;;;;0.10;0.10;;;4.70;99.90;;;;;;5024802;28;20201;-81
2023/02/09 11:16:24;;;;;;;0.10;0.10;;;4.80;99.90;;;;;;5020634;28;20179;-82
2023/02/09 11:19:27;;;;;;;0.10;0.10;;;4.90;99.90;;;;;;5026103;28;20205;-82
2023/02/09 11:22:11;;;;;;;0.20;0.20;;;5.00;99.90;;;;;;5014684;28;20213;-82
2023/02/09 11:25:15;;;;;;;0.10;0.10;;;5.10;99.90;;;;;;5026850;28;20210;-81
2023/02/09 11:27:59;;;;;;;0.10;0.10;;;5.30;99.90;;;;;;5022728;28;20189;-81
2023/02/09 11:30:47;;;;;;;0.10;0.10;;;5.30;99.90;;;;;;5024399;28;20590;-81
2023/02/09 11:33:27;;;;;;;0.10;0.10;;;5.20;99.90;;;;;;5026064;28;20233;-81
2023/02/09 11:36:06;;;;;;;0.10;0.10;;;5.10;99.90;;;;;;5025095;28;20178;-81
2023/02/09 11:38:54;;;;;;;0.10;0.10;;;5.30;99.90;;;;;;5024911;28;20210;-81
2023/02/09 11:44:26;;;;;;;0.10;0.10;;;5.30;99.90;;;;;;5025914;28;20244;-81
2023/02/09 11:47:01;;;;;;;0.10;0.10;;;5.50;99.90;;;;;;5026102;28;21183;-81
2023/02/09 11:49:31;;;;;;;0.10;0.10;;;5.60;99.90;;;;;;5041474;28;20198;-82
2023/02/09 11:51:58;;;;;;;0.03;0.03;;;5.40;99.90;;;;;;5026569;28;21068;-81
2023/02/09 11:54:28;;;;;;;0.10;0.10;;;5.60;99.90;;;;;;5023883;28;20178;-81
2023/02/09 11:57:00;;;;;;;0.10;0.10;;;5.90;99.90;;;;;;5025476;28;20277;-81
2023/02/09 11:59:35;;;;;;;0.10;0.10;;;6.00;99.90;;;;;;5024507;28;20232;-82
2023/02/09 12:02:13;;;;;;;0.10;0.10;;;6.10;99.90;;;;;;5023830;28;20664;-81
2023/02/09 12:04:48;;;;;;;0.10;0.10;;;6.10;99.90;;;;;;5024069;28;20229;-81
2023/02/09 12:07:36;;;;;;;0.10;0.10;;;6.10;99.90;;;;;;5022783;28;20182;-79
2023/02/09 12:10:13;;;;;;;0.10;0.10;;;6.20;99.90;;;;;;5021757;28;21465;-79
2023/02/09 12:13:01;;;;;;;0.10;0.10;;;6.30;99.90;;;;;;5023979;28;20203;-79
2023/02/09 12:15:49;;;;;;;0.10;0.10;;;6.10;99.90;;;;;;5024613;28;20168;-78
2023/02/09 12:18:23;;;;;;;0.10;0.10;;;6.20;99.90;;;;;;5023041;28;20218;-79
2023/02/09 12:20:55;;;;;;;0.10;0.10;;;6.10;99.90;;;;;;5022839;28;20207;-79
2023/02/09 12:23:33;;;;;;;0.10;0.10;;;6.10;99.90;;;;;;5022976;28;20615;-79
2023/02/09 12:26:22;;;;;;;0.10;0.10;;;6.20;99.90;;;;;;5024055;28;20178;-79
2023/02/09 12:29:03;;;;;;;0.10;0.10;;;6.10;99.90;;;;;;5023191;28;20174;-79
2023/02/09 12:31:30;;;;;;;0.00;0.00;;;6.00;99.90;;;;;;5022762;28;20199;-79
2023/02/09 12:34:22;;;;;;;0.10;0.10;;;6.10;99.90;;;;;;5023487;28;20179;-78
2023/02/09 12:37:21;;;;;;;0.00;0.00;;;5.90;99.90;;;;;;5012326;28;20271;-79
2023/02/09 12:40:05;;;;;;;0.10;0.10;;;6.20;99.90;;;;;;5023272;28;20198;-77
2023/02/09 12:42:43;;;;;;;0.10;0.10;;;6.20;99.90;;;;;;5024639;28;20226;-79
2023/02/09 12:45:29;;;;;;;0.10;0.10;;;6.20;99.90;;;;;;5024772;28;20266;-79
2023/02/09 12:48:13;;;;;;;0.10;0.10;;;5.20;99.90;;;;;;5028221;28;20175;-79
2023/02/09 12:50:42;;;;;;;0.10;0.10;;;5.70;99.90;;;;;;5027092;28;20238;-78
2023/02/09 12:53:25;;;;;;;0.10;0.10;;;5.90;99.90;;;;;;5028963;28;20676;-78
2023/02/09 12:56:07;;;;;;;0.10;0.10;;;6.10;99.90;;;;;;5027899;28;20186;-79
2023/02/09 12:58:54;;;;;;;0.10;0.10;;;6.30;99.90;;;;;;5024419;28;20180;-80
2023/02/09 13:01:20;;;;;;;0.10;0.10;;;6.20;99.90;;;;;;5026542;28;20736;-78
2023/02/09 13:04:06;;;;;;;0.10;0.10;;;6.30;99.90;;;;;;5026582;28;20290;-79
2023/02/09 13:06:42;;;;;;;0.10;0.10;;;6.30;99.90;;;;;;5024760;28;20179;-79
2023/02/09 13:09:15;;;;;;;0.10;0.10;;;6.50;99.90;;;;;;5028166;28;20199;-78
2023/02/09 13:11:57;;;;;;;0.10;0.10;;;6.60;99.90;;;;;;5027648;28;20200;-79
2023/02/09 13:14:24;;;;;;;0.10;0.10;;;6.60;99.90;;;;;;5027676;28;20681;-80
2023/02/09 13:16:56;;;;;;;0.10;0.10;;;6.60;99.90;;;;;;5026125;28;20332;-78
2023/02/09 13:19:51;;;;;;;0.10;0.10;;;6.60;99.90;;;;;;5026430;28;20185;-79